sensor_id;sensor_type;location;lat;lon;timestamp;P1;durP1;ratioP1;P2;durP2;ratioP2
66800;SDS011;53703;50.326;19.122;2023-04-06T00:01:52;68.00;;;25.30;;
66800;SDS011;53703;50.326;19.122;2023-04-06T00:04:46;63.70;;;24.80;;
66800;SDS011;53703;50.326;19.122;2023-04-06T00:07:40;66.90;;;25.90;;
66800;SDS011;53703;50.326;19.122;2023-04-06T00:10:35;60.00;;;24.70;;
66800;SDS011;53703;50.326;19.122;2023-04-06T00:13:29;63.50;;;26.20;;
66800;SDS011;53703;50.326;19.122;2023-04-06T00:16:23;58.40;;;24.10;;
66800;SDS011;53703;50.326;19.122;2023-04-06T00:19:20;67.70;;;25.40;;
66800;SDS011;53703;50.326;19.122;2023-04-06T00:22:14;53.70;;;23.60;;
66800;SDS011;53703;50.326;19.122;2023-04-06T00:25:09;57.10;;;22.40;;
66800;SDS011;53703;50.326;19.122;2023-04-06T00:28:04;57.50;;;23.00;;
66800;SDS011;53703;50.326;19.122;2023-04-06T00:30:58;50.80;;;21.50;;
66800;SDS011;53703;50.326;19.122;2023-04-06T00:33:51;55.10;;;23.00;;
66800;SDS011;53703;50.326;19.122;2023-04-06T00:36:46;51.80;;;21.80;;
66800;SDS011;53703;50.326;19.122;2023-04-06T00:39:40;56.00;;;22.10;;
66800;SDS011;53703;50.326;19.122;2023-04-06T00:42:38;50.10;;;21.40;;
66800;SDS011;53703;50.326;19.122;2023-04-06T00:45:33;50.90;;;22.20;;
66800;SDS011;53703;50.326;19.122;2023-04-06T00:48:27;49.10;;;21.30;;
66800;SDS011;53703;50.326;19.122;2023-04-06T00:51:22;52.00;;;21.30;;
66800;SDS011;53703;50.326;19.122;2023-04-06T00:54:18;48.00;;;21.00;;
66800;SDS011;53703;50.326;19.122;2023-04-06T00:57:13;44.80;;;20.90;;
66800;SDS011;53703;50.326;19.122;2023-04-06T01:00:09;43.10;;;19.30;;
66800;SDS011;53703;50.326;19.122;2023-04-06T01:03:05;45.40;;;20.00;;
66800;SDS011;53703;50.326;19.122;2023-04-06T01:05:59;49.60;;;20.80;;
66800;SDS011;53703;50.326;19.122;2023-04-06T01:08:54;46.50;;;19.60;;
66800;SDS011;53703;50.326;19.122;2023-04-06T01:11:48;44.30;;;20.80;;
66800;SDS011;53703;50.326;19.122;2023-04-06T01:14:41;42.60;;;18.40;;
66800;SDS011;53703;50.326;19.122;2023-04-06T01:17:35;44.60;;;19.40;;
66800;SDS011;53703;50.326;19.122;2023-04-06T01:20:29;44.60;;;19.10;;
66800;SDS011;53703;50.326;19.122;2023-04-06T01:23:23;45.80;;;19.50;;
66800;SDS011;53703;50.326;19.122;2023-04-06T01:26:17;43.30;;;20.00;;
66800;SDS011;53703;50.326;19.122;2023-04-06T01:29:12;44.90;;;19.60;;
66800;SDS011;53703;50.326;19.122;2023-04-06T01:32:06;41.90;;;18.60;;
66800;SDS011;53703;50.326;19.122;2023-04-06T01:35:01;39.50;;;18.10;;
66800;SDS011;53703;50.326;19.122;2023-04-06T01:37:55;46.30;;;19.50;;
66800;SDS011;53703;50.326;19.122;2023-04-06T01:40:49;39.90;;;18.20;;
66800;SDS011;53703;50.326;19.122;2023-04-06T01:43:43;41.30;;;17.40;;
66800;SDS011;53703;50.326;19.122;2023-04-06T01:46:39;35.70;;;16.70;;
66800;SDS011;53703;50.326;19.122;2023-04-06T01:49:34;39.10;;;18.00;;
66800;SDS011;53703;50.326;19.122;2023-04-06T01:52:27;40.40;;;17.90;;
66800;SDS011;53703;50.326;19.122;2023-04-06T01:55:21;38.50;;;16.60;;
66800;SDS011;53703;50.326;19.122;2023-04-06T01:58:16;38.00;;;17.30;;
66800;SDS011;53703;50.326;19.122;2023-04-06T02:01:10;37.50;;;17.40;;
66800;SDS011;53703;50.326;19.122;2023-04-06T02:04:04;37.80;;;16.70;;
66800;SDS011;53703;50.326;19.122;2023-04-06T02:06:58;40.10;;;18.00;;
66800;SDS011;53703;50.326;19.122;2023-04-06T02:09:55;41.10;;;17.90;;
66800;SDS011;53703;50.326;19.122;2023-04-06T02:12:49;38.70;;;17.30;;
66800;SDS011;53703;50.326;19.122;2023-04-06T02:15:43;37.10;;;17.10;;
66800;SDS011;53703;50.326;19.122;2023-04-06T02:18:37;37.00;;;17.00;;
66800;SDS011;53703;50.326;19.122;2023-04-06T02:21:31;35.60;;;16.70;;
66800;SDS011;53703;50.326;19.122;2023-04-06T02:24:25;38.20;;;17.70;;
66800;SDS011;53703;50.326;19.122;2023-04-06T02:27:19;37.00;;;16.70;;
66800;SDS011;53703;50.326;19.122;2023-04-06T02:30:13;38.20;;;17.30;;
66800;SDS011;53703;50.326;19.122;2023-04-06T02:33:07;42.80;;;17.10;;
66800;SDS011;53703;50.326;19.122;2023-04-06T02:36:01;33.80;;;16.50;;
66800;SDS011;53703;50.326;19.122;2023-04-06T02:38:56;34.50;;;16.30;;
66800;SDS011;53703;50.326;19.122;2023-04-06T02:41:50;36.30;;;16.40;;
66800;SDS011;53703;50.326;19.122;2023-04-06T02:44:44;36.00;;;16.20;;
66800;SDS011;53703;50.326;19.122;2023-04-06T02:47:38;36.50;;;16.80;;
66800;SDS011;53703;50.326;19.122;2023-04-06T02:50:32;33.40;;;15.10;;
66800;SDS011;53703;50.326;19.122;2023-04-06T02:53:26;34.20;;;16.20;;
66800;SDS011;53703;50.326;19.122;2023-04-06T02:56:20;37.30;;;17.30;;
66800;SDS011;53703;50.326;19.122;2023-04-06T02:59:14;35.30;;;16.20;;
66800;SDS011;53703;50.326;19.122;2023-04-06T03:02:09;36.50;;;15.30;;
66800;SDS011;53703;50.326;19.122;2023-04-06T03:05:04;33.50;;;15.40;;
66800;SDS011;53703;50.326;19.122;2023-04-06T03:07:59;35.60;;;15.00;;
66800;SDS011;53703;50.326;19.122;2023-04-06T03:10:53;33.70;;;15.90;;
66800;SDS011;53703;50.326;19.122;2023-04-06T03:13:47;32.30;;;16.20;;
66800;SDS011;53703;50.326;19.122;2023-04-06T03:16:41;30.20;;;14.60;;
66800;SDS011;53703;50.326;19.122;2023-04-06T03:19:35;36.70;;;15.90;;
66800;SDS011;53703;50.326;19.122;2023-04-06T03:22:29;37.40;;;16.00;;
66800;SDS011;53703;50.326;19.122;2023-04-06T03:25:23;36.00;;;16.60;;
66800;SDS011;53703;50.326;19.122;2023-04-06T03:28:03;37.20;;;17.00;;
66800;SDS011;53703;50.326;19.122;2023-04-06T03:30:57;33.20;;;16.20;;
66800;SDS011;53703;50.326;19.122;2023-04-06T03:33:51;34.30;;;16.10;;
66800;SDS011;53703;50.326;19.122;2023-04-06T03:36:47;30.00;;;15.60;;
66800;SDS011;53703;50.326;19.122;2023-04-06T03:40:01;34.30;;;15.90;;
66800;SDS011;53703;50.326;19.122;2023-04-06T03:42:56;34.70;;;16.10;;
66800;SDS011;53703;50.326;19.122;2023-04-06T03:45:50;32.60;;;15.30;;
66800;SDS011;53703;50.326;19.122;2023-04-06T03:48:45;28.60;;;15.70;;
66800;SDS011;53703;50.326;19.122;2023-04-06T03:51:40;33.00;;;15.60;;
66800;SDS011;53703;50.326;19.122;2023-04-06T03:54:34;33.00;;;15.80;;
66800;SDS011;53703;50.326;19.122;2023-04-06T03:57:28;33.90;;;15.90;;
66800;SDS011;53703;50.326;19.122;2023-04-06T04:00:23;32.60;;;15.80;;
66800;SDS011;53703;50.326;19.122;2023-04-06T04:03:17;33.90;;;15.80;;
66800;SDS011;53703;50.326;19.122;2023-04-06T04:06:12;33.70;;;15.60;;
66800;SDS011;53703;50.326;19.122;2023-04-06T04:09:07;37.50;;;16.60;;
66800;SDS011;53703;50.326;19.122;2023-04-06T04:12:02;40.60;;;16.90;;
66800;SDS011;53703;50.326;19.122;2023-04-06T04:14:56;36.20;;;17.20;;
66800;SDS011;53703;50.326;19.122;2023-04-06T04:17:50;37.30;;;17.00;;
66800;SDS011;53703;50.326;19.122;2023-04-06T04:20:44;37.20;;;17.60;;
66800;SDS011;53703;50.326;19.122;2023-04-06T04:23:38;43.50;;;19.20;;
66800;SDS011;53703;50.326;19.122;2023-04-06T04:26:32;40.70;;;18.70;;
66800;SDS011;53703;50.326;19.122;2023-04-06T04:29:09;38.00;;;18.70;;
66800;SDS011;53703;50.326;19.122;2023-04-06T04:32:03;40.30;;;18.20;;
66800;SDS011;53703;50.326;19.122;2023-04-06T04:34:57;42.10;;;18.20;;
66800;SDS011;53703;50.326;19.122;2023-04-06T04:37:51;40.10;;;19.80;;
66800;SDS011;53703;50.326;19.122;2023-04-06T04:40:45;40.80;;;20.80;;
66800;SDS011;53703;50.326;19.122;2023-04-06T04:43:39;44.40;;;19.90;;
66800;SDS011;53703;50.326;19.122;2023-04-06T04:46:33;49.30;;;22.10;;
66800;SDS011;53703;50.326;19.122;2023-04-06T04:49:27;44.70;;;19.90;;
66800;SDS011;53703;50.326;19.122;2023-04-06T04:52:21;43.00;;;18.90;;
66800;SDS011;53703;50.326;19.122;2023-04-06T04:55:16;36.90;;;18.30;;
66800;SDS011;53703;50.326;19.122;2023-04-06T04:58:10;37.90;;;17.80;;
66800;SDS011;53703;50.326;19.122;2023-04-06T05:01:07;40.60;;;18.00;;
66800;SDS011;53703;50.326;19.122;2023-04-06T05:04:01;42.70;;;18.70;;
66800;SDS011;53703;50.326;19.122;2023-04-06T05:07:05;39.50;;;19.30;;
66800;SDS011;53703;50.326;19.122;2023-04-06T05:10:00;38.40;;;18.50;;
66800;SDS011;53703;50.326;19.122;2023-04-06T05:12:54;33.70;;;17.40;;
66800;SDS011;53703;50.326;19.122;2023-04-06T05:15:49;40.80;;;19.10;;
66800;SDS011;53703;50.326;19.122;2023-04-06T05:18:43;39.90;;;18.60;;
66800;SDS011;53703;50.326;19.122;2023-04-06T05:21:37;39.20;;;18.20;;
66800;SDS011;53703;50.326;19.122;2023-04-06T05:24:31;35.60;;;17.60;;
66800;SDS011;53703;50.326;19.122;2023-04-06T05:27:25;36.50;;;18.80;;
66800;SDS011;53703;50.326;19.122;2023-04-06T05:30:20;37.70;;;18.50;;
66800;SDS011;53703;50.326;19.122;2023-04-06T05:33:13;38.70;;;18.50;;
66800;SDS011;53703;50.326;19.122;2023-04-06T05:36:08;39.60;;;17.50;;
66800;SDS011;53703;50.326;19.122;2023-04-06T05:39:05;38.60;;;18.10;;
66800;SDS011;53703;50.326;19.122;2023-04-06T05:42:01;38.00;;;18.20;;
66800;SDS011;53703;50.326;19.122;2023-04-06T05:44:58;32.50;;;17.80;;
66800;SDS011;53703;50.326;19.122;2023-04-06T05:47:52;38.30;;;18.30;;
66800;SDS011;53703;50.326;19.122;2023-04-06T05:50:49;32.90;;;17.00;;
66800;SDS011;53703;50.326;19.122;2023-04-06T05:53:44;30.70;;;17.20;;
66800;SDS011;53703;50.326;19.122;2023-04-06T05:56:38;38.60;;;19.10;;
66800;SDS011;53703;50.326;19.122;2023-04-06T05:59:32;45.50;;;19.70;;
66800;SDS011;53703;50.326;19.122;2023-04-06T06:02:26;43.10;;;21.20;;
66800;SDS011;53703;50.326;19.122;2023-04-06T06:05:22;46.20;;;22.80;;
66800;SDS011;53703;50.326;19.122;2023-04-06T06:08:16;44.00;;;20.60;;
66800;SDS011;53703;50.326;19.122;2023-04-06T06:11:10;40.40;;;18.90;;
66800;SDS011;53703;50.326;19.122;2023-04-06T06:14:04;39.50;;;19.00;;
66800;SDS011;53703;50.326;19.122;2023-04-06T06:16:58;42.80;;;19.20;;
66800;SDS011;53703;50.326;19.122;2023-04-06T06:19:52;40.90;;;18.80;;
66800;SDS011;53703;50.326;19.122;2023-04-06T06:22:47;34.30;;;17.10;;
66800;SDS011;53703;50.326;19.122;2023-04-06T06:25:40;36.40;;;17.30;;
66800;SDS011;53703;50.326;19.122;2023-04-06T06:28:35;34.50;;;17.60;;
66800;SDS011;53703;50.326;19.122;2023-04-06T06:31:29;36.30;;;17.30;;
66800;SDS011;53703;50.326;19.122;2023-04-06T06:34:23;32.80;;;17.90;;
66800;SDS011;53703;50.326;19.122;2023-04-06T06:37:17;32.90;;;16.90;;
66800;SDS011;53703;50.326;19.122;2023-04-06T06:40:12;29.30;;;16.20;;
66800;SDS011;53703;50.326;19.122;2023-04-06T06:43:08;32.10;;;15.70;;
66800;SDS011;53703;50.326;19.122;2023-04-06T06:46:01;31.40;;;15.00;;
66800;SDS011;53703;50.326;19.122;2023-04-06T06:48:57;30.00;;;14.20;;
66800;SDS011;53703;50.326;19.122;2023-04-06T06:51:51;31.30;;;13.80;;
66800;SDS011;53703;50.326;19.122;2023-04-06T06:54:36;33.20;;;14.50;;
66800;SDS011;53703;50.326;19.122;2023-04-06T06:57:30;26.90;;;13.70;;
66800;SDS011;53703;50.326;19.122;2023-04-06T07:00:24;28.00;;;13.30;;
66800;SDS011;53703;50.326;19.122;2023-04-06T07:03:18;25.60;;;13.40;;
66800;SDS011;53703;50.326;19.122;2023-04-06T07:06:12;27.80;;;12.70;;
66800;SDS011;53703;50.326;19.122;2023-04-06T07:09:06;27.90;;;12.60;;
66800;SDS011;53703;50.326;19.122;2023-04-06T07:12:00;24.40;;;12.20;;
66800;SDS011;53703;50.326;19.122;2023-04-06T07:14:54;28.10;;;12.90;;
66800;SDS011;53703;50.326;19.122;2023-04-06T07:17:48;25.50;;;13.00;;
66800;SDS011;53703;50.326;19.122;2023-04-06T07:20:47;24.20;;;11.60;;
66800;SDS011;53703;50.326;19.122;2023-04-06T07:23:41;22.90;;;11.70;;
66800;SDS011;53703;50.326;19.122;2023-04-06T07:26:34;25.70;;;12.60;;
66800;SDS011;53703;50.326;19.122;2023-04-06T07:29:29;21.90;;;11.10;;
66800;SDS011;53703;50.326;19.122;2023-04-06T07:32:23;19.70;;;11.70;;
66800;SDS011;53703;50.326;19.122;2023-04-06T07:35:17;19.50;;;10.30;;
66800;SDS011;53703;50.326;19.122;2023-04-06T07:38:11;21.30;;;10.90;;
66800;SDS011;53703;50.326;19.122;2023-04-06T07:41:05;21.10;;;10.30;;
66800;SDS011;53703;50.326;19.122;2023-04-06T07:43:59;23.10;;;9.60;;
66800;SDS011;53703;50.326;19.122;2023-04-06T07:46:53;25.90;;;10.30;;
66800;SDS011;53703;50.326;19.122;2023-04-06T07:49:47;18.70;;;9.50;;
66800;SDS011;53703;50.326;19.122;2023-04-06T07:52:41;18.70;;;9.60;;
66800;SDS011;53703;50.326;19.122;2023-04-06T07:55:36;17.20;;;9.30;;
66800;SDS011;53703;50.326;19.122;2023-04-06T07:58:31;15.50;;;9.50;;
66800;SDS011;53703;50.326;19.122;2023-04-06T08:01:25;17.90;;;8.60;;
66800;SDS011;53703;50.326;19.122;2023-04-06T08:04:19;14.90;;;8.20;;
66800;SDS011;53703;50.326;19.122;2023-04-06T08:07:14;14.20;;;7.70;;
66800;SDS011;53703;50.326;19.122;2023-04-06T08:10:08;16.40;;;8.20;;
66800;SDS011;53703;50.326;19.122;2023-04-06T08:13:03;16.40;;;9.00;;
66800;SDS011;53703;50.326;19.122;2023-04-06T08:15:56;15.30;;;8.30;;
66800;SDS011;53703;50.326;19.122;2023-04-06T08:18:51;14.50;;;8.20;;
66800;SDS011;53703;50.326;19.122;2023-04-06T08:21:45;14.80;;;7.50;;
66800;SDS011;53703;50.326;19.122;2023-04-06T08:24:39;15.70;;;8.00;;
66800;SDS011;53703;50.326;19.122;2023-04-06T08:27:33;16.50;;;8.40;;
66800;SDS011;53703;50.326;19.122;2023-04-06T08:30:28;13.20;;;6.80;;
66800;SDS011;53703;50.326;19.122;2023-04-06T08:33:23;14.20;;;7.30;;
66800;SDS011;53703;50.326;19.122;2023-04-06T08:36:17;13.20;;;6.90;;
66800;SDS011;53703;50.326;19.122;2023-04-06T08:39:13;14.90;;;7.00;;
66800;SDS011;53703;50.326;19.122;2023-04-06T08:42:19;15.60;;;7.50;;
66800;SDS011;53703;50.326;19.122;2023-04-06T08:45:13;13.20;;;7.10;;
66800;SDS011;53703;50.326;19.122;2023-04-06T08:48:09;12.80;;;7.50;;
66800;SDS011;53703;50.326;19.122;2023-04-06T08:51:06;12.50;;;7.10;;
66800;SDS011;53703;50.326;19.122;2023-04-06T08:54:01;14.50;;;7.10;;
66800;SDS011;53703;50.326;19.122;2023-04-06T08:56:55;20.20;;;7.20;;
66800;SDS011;53703;50.326;19.122;2023-04-06T08:59:50;13.10;;;7.20;;
66800;SDS011;53703;50.326;19.122;2023-04-06T09:02:45;21.60;;;11.50;;
66800;SDS011;53703;50.326;19.122;2023-04-06T09:05:41;76.40;;;30.20;;
66800;SDS011;53703;50.326;19.122;2023-04-06T09:08:37;53.50;;;20.40;;
66800;SDS011;53703;50.326;19.122;2023-04-06T09:11:51;41.30;;;17.20;;
66800;SDS011;53703;50.326;19.122;2023-04-06T09:14:46;45.20;;;17.90;;
66800;SDS011;53703;50.326;19.122;2023-04-06T09:17:40;51.60;;;20.60;;
66800;SDS011;53703;50.326;19.122;2023-04-06T09:20:37;58.10;;;23.50;;
66800;SDS011;53703;50.326;19.122;2023-04-06T09:23:31;55.30;;;22.70;;
66800;SDS011;53703;50.326;19.122;2023-04-06T09:26:26;60.70;;;22.50;;
66800;SDS011;53703;50.326;19.122;2023-04-06T09:29:25;56.10;;;21.30;;
66800;SDS011;53703;50.326;19.122;2023-04-06T09:32:19;50.90;;;20.10;;
66800;SDS011;53703;50.326;19.122;2023-04-06T09:35:15;42.80;;;17.60;;
66800;SDS011;53703;50.326;19.122;2023-04-06T09:38:13;50.80;;;19.90;;
66800;SDS011;53703;50.326;19.122;2023-04-06T09:41:07;45.20;;;18.00;;
66800;SDS011;53703;50.326;19.122;2023-04-06T09:44:08;46.10;;;19.50;;
66800;SDS011;53703;50.326;19.122;2023-04-06T09:47:03;41.60;;;16.90;;
66800;SDS011;53703;50.326;19.122;2023-04-06T09:50:00;43.70;;;18.70;;
66800;SDS011;53703;50.326;19.122;2023-04-06T09:52:56;43.70;;;17.50;;
66800;SDS011;53703;50.326;19.122;2023-04-06T09:55:52;43.30;;;16.60;;
66800;SDS011;53703;50.326;19.122;2023-04-06T09:58:56;42.10;;;17.70;;
66800;SDS011;53703;50.326;19.122;2023-04-06T10:01:54;44.80;;;18.20;;
66800;SDS011;53703;50.326;19.122;2023-04-06T10:04:53;45.70;;;17.80;;
66800;SDS011;53703;50.326;19.122;2023-04-06T10:07:53;46.20;;;18.60;;
66800;SDS011;53703;50.326;19.122;2023-04-06T10:10:51;39.50;;;16.30;;
66800;SDS011;53703;50.326;19.122;2023-04-06T10:13:46;44.50;;;17.60;;
66800;SDS011;53703;50.326;19.122;2023-04-06T10:16:41;43.70;;;17.90;;
66800;SDS011;53703;50.326;19.122;2023-04-06T10:19:42;43.10;;;16.90;;
66800;SDS011;53703;50.326;19.122;2023-04-06T10:22:43;42.70;;;16.00;;
66800;SDS011;53703;50.326;19.122;2023-04-06T10:25:58;36.50;;;15.20;;
66800;SDS011;53703;50.326;19.122;2023-04-06T10:28:54;44.00;;;16.60;;
66800;SDS011;53703;50.326;19.122;2023-04-06T10:31:55;38.50;;;15.90;;
66800;SDS011;53703;50.326;19.122;2023-04-06T10:34:50;37.30;;;15.80;;
66800;SDS011;53703;50.326;19.122;2023-04-06T10:37:51;37.40;;;15.60;;
66800;SDS011;53703;50.326;19.122;2023-04-06T10:40:54;36.70;;;14.80;;
66800;SDS011;53703;50.326;19.122;2023-04-06T10:43:57;33.00;;;14.60;;
66800;SDS011;53703;50.326;19.122;2023-04-06T10:46:56;31.90;;;13.90;;
66800;SDS011;53703;50.326;19.122;2023-04-06T10:49:54;32.80;;;13.60;;
66800;SDS011;53703;50.326;19.122;2023-04-06T10:52:48;33.20;;;13.70;;
66800;SDS011;53703;50.326;19.122;2023-04-06T10:56:02;35.50;;;13.30;;
66800;SDS011;53703;50.326;19.122;2023-04-06T10:59:02;28.40;;;11.90;;
66800;SDS011;53703;50.326;19.122;2023-04-06T11:01:57;30.40;;;12.10;;
66800;SDS011;53703;50.326;19.122;2023-04-06T11:04:58;29.40;;;11.80;;
66800;SDS011;53703;50.326;19.122;2023-04-06T11:07:52;31.40;;;11.40;;
66800;SDS011;53703;50.326;19.122;2023-04-06T11:10:46;30.10;;;11.30;;
66800;SDS011;53703;50.326;19.122;2023-04-06T11:13:43;37.40;;;13.00;;
66800;SDS011;53703;50.326;19.122;2023-04-06T11:16:38;31.00;;;12.00;;
66800;SDS011;53703;50.326;19.122;2023-04-06T11:19:34;28.80;;;11.00;;
66800;SDS011;53703;50.326;19.122;2023-04-06T11:22:28;24.40;;;10.40;;
66800;SDS011;53703;50.326;19.122;2023-04-06T11:25:23;35.80;;;13.40;;
66800;SDS011;53703;50.326;19.122;2023-04-06T11:28:20;25.90;;;10.30;;
66800;SDS011;53703;50.326;19.122;2023-04-06T11:31:14;29.70;;;11.00;;
66800;SDS011;53703;50.326;19.122;2023-04-06T11:34:12;31.60;;;11.90;;
66800;SDS011;53703;50.326;19.122;2023-04-06T11:37:10;26.20;;;11.20;;
66800;SDS011;53703;50.326;19.122;2023-04-06T11:40:09;29.60;;;11.30;;
66800;SDS011;53703;50.326;19.122;2023-04-06T11:43:04;30.50;;;10.60;;
66800;SDS011;53703;50.326;19.122;2023-04-06T11:46:02;28.20;;;10.60;;
66800;SDS011;53703;50.326;19.122;2023-04-06T11:49:00;21.60;;;10.50;;
66800;SDS011;53703;50.326;19.122;2023-04-06T11:51:55;27.20;;;11.00;;
66800;SDS011;53703;50.326;19.122;2023-04-06T11:54:50;28.40;;;13.50;;
66800;SDS011;53703;50.326;19.122;2023-04-06T11:57:45;27.70;;;14.50;;
66800;SDS011;53703;50.326;19.122;2023-04-06T12:00:40;28.00;;;16.00;;
66800;SDS011;53703;50.326;19.122;2023-04-06T12:03:37;27.50;;;14.40;;
66800;SDS011;53703;50.326;19.122;2023-04-06T12:06:31;27.10;;;15.00;;
66800;SDS011;53703;50.326;19.122;2023-04-06T12:09:26;26.00;;;13.70;;
66800;SDS011;53703;50.326;19.122;2023-04-06T12:12:20;31.80;;;13.10;;
66800;SDS011;53703;50.326;19.122;2023-04-06T12:15:14;24.40;;;11.70;;
66800;SDS011;53703;50.326;19.122;2023-04-06T12:18:07;23.60;;;12.30;;
66800;SDS011;53703;50.326;19.122;2023-04-06T12:21:01;23.60;;;12.80;;
66800;SDS011;53703;50.326;19.122;2023-04-06T12:23:57;23.20;;;12.40;;
66800;SDS011;53703;50.326;19.122;2023-04-06T12:26:51;24.20;;;12.50;;
66800;SDS011;53703;50.326;19.122;2023-04-06T12:29:59;23.20;;;13.50;;
66800;SDS011;53703;50.326;19.122;2023-04-06T12:32:53;23.10;;;13.60;;
66800;SDS011;53703;50.326;19.122;2023-04-06T12:35:47;25.90;;;13.00;;
66800;SDS011;53703;50.326;19.122;2023-04-06T12:38:41;27.20;;;19.60;;
66800;SDS011;53703;50.326;19.122;2023-04-06T12:41:36;30.70;;;19.40;;
66800;SDS011;53703;50.326;19.122;2023-04-06T12:44:32;28.20;;;20.90;;
66800;SDS011;53703;50.326;19.122;2023-04-06T12:47:26;32.80;;;19.30;;
66800;SDS011;53703;50.326;19.122;2023-04-06T12:50:21;26.20;;;18.30;;
66800;SDS011;53703;50.326;19.122;2023-04-06T12:53:15;27.40;;;17.80;;
66800;SDS011;53703;50.326;19.122;2023-04-06T12:56:14;26.80;;;16.80;;
66800;SDS011;53703;50.326;19.122;2023-04-06T12:59:08;24.00;;;15.40;;
66800;SDS011;53703;50.326;19.122;2023-04-06T13:02:03;21.40;;;14.10;;
66800;SDS011;53703;50.326;19.122;2023-04-06T13:04:59;21.60;;;13.80;;
66800;SDS011;53703;50.326;19.122;2023-04-06T13:07:53;23.80;;;12.40;;
66800;SDS011;53703;50.326;19.122;2023-04-06T13:10:50;22.70;;;14.90;;
66800;SDS011;53703;50.326;19.122;2023-04-06T13:13:44;20.10;;;13.80;;
66800;SDS011;53703;50.326;19.122;2023-04-06T13:16:38;21.90;;;13.80;;
66800;SDS011;53703;50.326;19.122;2023-04-06T13:19:34;20.30;;;13.00;;
66800;SDS011;53703;50.326;19.122;2023-04-06T13:22:28;20.70;;;12.80;;
66800;SDS011;53703;50.326;19.122;2023-04-06T13:25:22;18.80;;;11.60;;
66800;SDS011;53703;50.326;19.122;2023-04-06T13:28:16;19.60;;;11.70;;
66800;SDS011;53703;50.326;19.122;2023-04-06T13:31:10;27.00;;;17.10;;
66800;SDS011;53703;50.326;19.122;2023-04-06T13:34:05;38.50;;;21.50;;
66800;SDS011;53703;50.326;19.122;2023-04-06T13:36:59;81.00;;;43.60;;
66800;SDS011;53703;50.326;19.122;2023-04-06T13:39:53;57.70;;;31.00;;
66800;SDS011;53703;50.326;19.122;2023-04-06T13:42:47;66.10;;;35.30;;
66800;SDS011;53703;50.326;19.122;2023-04-06T13:45:41;58.40;;;30.00;;
66800;SDS011;53703;50.326;19.122;2023-04-06T13:48:52;77.50;;;41.10;;
66800;SDS011;53703;50.326;19.122;2023-04-06T13:51:46;51.50;;;29.10;;
66800;SDS011;53703;50.326;19.122;2023-04-06T13:54:40;46.50;;;26.10;;
66800;SDS011;53703;50.326;19.122;2023-04-06T13:57:36;36.70;;;20.90;;
66800;SDS011;53703;50.326;19.122;2023-04-06T14:00:30;48.20;;;27.10;;
66800;SDS011;53703;50.326;19.122;2023-04-06T14:03:24;39.60;;;22.30;;
66800;SDS011;53703;50.326;19.122;2023-04-06T14:06:19;38.30;;;21.10;;
66800;SDS011;53703;50.326;19.122;2023-04-06T14:09:21;38.50;;;21.60;;
66800;SDS011;53703;50.326;19.122;2023-04-06T14:12:16;33.70;;;20.20;;
66800;SDS011;53703;50.326;19.122;2023-04-06T14:15:12;29.30;;;17.80;;
66800;SDS011;53703;50.326;19.122;2023-04-06T14:18:07;32.20;;;18.90;;
66800;SDS011;53703;50.326;19.122;2023-04-06T14:21:01;36.70;;;21.70;;
66800;SDS011;53703;50.326;19.122;2023-04-06T14:23:56;31.00;;;18.20;;
66800;SDS011;53703;50.326;19.122;2023-04-06T14:26:50;30.90;;;17.30;;
66800;SDS011;53703;50.326;19.122;2023-04-06T14:29:44;28.20;;;15.30;;
66800;SDS011;53703;50.326;19.122;2023-04-06T14:32:38;28.00;;;15.40;;
66800;SDS011;53703;50.326;19.122;2023-04-06T14:35:33;26.30;;;15.90;;
66800;SDS011;53703;50.326;19.122;2023-04-06T14:38:26;24.90;;;14.30;;
66800;SDS011;53703;50.326;19.122;2023-04-06T14:41:22;23.10;;;13.30;;
66800;SDS011;53703;50.326;19.122;2023-04-06T14:44:16;21.00;;;12.80;;
66800;SDS011;53703;50.326;19.122;2023-04-06T14:47:11;22.40;;;13.20;;
66800;SDS011;53703;50.326;19.122;2023-04-06T14:50:08;23.10;;;13.20;;
66800;SDS011;53703;50.326;19.122;2023-04-06T14:53:02;22.20;;;12.00;;
66800;SDS011;53703;50.326;19.122;2023-04-06T14:55:57;23.80;;;13.80;;
66800;SDS011;53703;50.326;19.122;2023-04-06T14:58:51;21.10;;;12.80;;
66800;SDS011;53703;50.326;19.122;2023-04-06T15:01:45;23.70;;;13.50;;
66800;SDS011;53703;50.326;19.122;2023-04-06T15:04:40;22.90;;;12.70;;
66800;SDS011;53703;50.326;19.122;2023-04-06T15:07:34;20.30;;;12.10;;
66800;SDS011;53703;50.326;19.122;2023-04-06T15:10:27;21.40;;;11.50;;
66800;SDS011;53703;50.326;19.122;2023-04-06T15:13:22;19.60;;;11.50;;
66800;SDS011;53703;50.326;19.122;2023-04-06T15:16:16;18.50;;;11.20;;
66800;SDS011;53703;50.326;19.122;2023-04-06T15:19:11;19.50;;;11.20;;
66800;SDS011;53703;50.326;19.122;2023-04-06T15:22:05;19.20;;;11.40;;
66800;SDS011;53703;50.326;19.122;2023-04-06T15:24:58;22.80;;;11.10;;
66800;SDS011;53703;50.326;19.122;2023-04-06T15:27:53;20.80;;;9.80;;
66800;SDS011;53703;50.326;19.122;2023-04-06T15:30:49;23.50;;;9.90;;
66800;SDS011;53703;50.326;19.122;2023-04-06T15:33:43;18.40;;;10.90;;
66800;SDS011;53703;50.326;19.122;2023-04-06T15:36:38;18.70;;;10.40;;
66800;SDS011;53703;50.326;19.122;2023-04-06T15:39:34;19.10;;;9.70;;
66800;SDS011;53703;50.326;19.122;2023-04-06T15:42:28;18.00;;;9.40;;
66800;SDS011;53703;50.326;19.122;2023-04-06T15:45:21;18.90;;;10.40;;
66800;SDS011;53703;50.326;19.122;2023-04-06T15:48:15;20.40;;;10.10;;
66800;SDS011;53703;50.326;19.122;2023-04-06T15:51:09;16.10;;;9.70;;
66800;SDS011;53703;50.326;19.122;2023-04-06T15:54:03;16.50;;;9.50;;
66800;SDS011;53703;50.326;19.122;2023-04-06T15:56:57;14.70;;;8.80;;
66800;SDS011;53703;50.326;19.122;2023-04-06T15:59:52;16.60;;;9.10;;
66800;SDS011;53703;50.326;19.122;2023-04-06T16:02:46;15.50;;;8.60;;
66800;SDS011;53703;50.326;19.122;2023-04-06T16:05:40;17.10;;;9.10;;
66800;SDS011;53703;50.326;19.122;2023-04-06T16:08:43;17.40;;;8.70;;
66800;SDS011;53703;50.326;19.122;2023-04-06T16:11:37;16.40;;;8.80;;
66800;SDS011;53703;50.326;19.122;2023-04-06T16:14:31;15.50;;;8.30;;
66800;SDS011;53703;50.326;19.122;2023-04-06T16:17:25;15.70;;;8.20;;
66800;SDS011;53703;50.326;19.122;2023-04-06T16:20:19;19.10;;;9.00;;
66800;SDS011;53703;50.326;19.122;2023-04-06T16:23:13;17.60;;;8.70;;
66800;SDS011;53703;50.326;19.122;2023-04-06T16:26:13;14.20;;;8.50;;
66800;SDS011;53703;50.326;19.122;2023-04-06T16:29:07;14.50;;;7.90;;
66800;SDS011;53703;50.326;19.122;2023-04-06T16:32:17;16.00;;;8.50;;
66800;SDS011;53703;50.326;19.122;2023-04-06T16:35:12;17.30;;;9.10;;
66800;SDS011;53703;50.326;19.122;2023-04-06T16:38:05;15.10;;;8.30;;
66800;SDS011;53703;50.326;19.122;2023-04-06T16:41:02;17.10;;;9.40;;
66800;SDS011;53703;50.326;19.122;2023-04-06T16:43:56;15.20;;;8.70;;
66800;SDS011;53703;50.326;19.122;2023-04-06T16:46:50;19.40;;;9.20;;
66800;SDS011;53703;50.326;19.122;2023-04-06T16:49:44;20.90;;;9.70;;
66800;SDS011;53703;50.326;19.122;2023-04-06T16:52:38;21.50;;;11.00;;